sensor_id;sensor_type;location;lat;lon;timestamp;pressure;altitude;pressure_sealevel;temperature;humidity
25947;BME280;13745;51.470;9.894;2023-05-11T00:00:33;99069.31;;;17.29;73.21
25947;BME280;13745;51.470;9.894;2023-05-11T00:03:18;99067.63;;;17.28;73.52
25947;BME280;13745;51.470;9.894;2023-05-11T00:06:03;99073.72;;;17.29;73.38
25947;BME280;13745;51.470;9.894;2023-05-11T00:08:48;99080.59;;;17.31;73.51
25947;BME280;13745;51.470;9.894;2023-05-11T00:11:34;99070.97;;;17.32;73.40
25947;BME280;13745;51.470;9.894;2023-05-11T00:14:19;99079.69;;;17.32;73.23
25947;BME280;13745;51.470;9.894;2023-05-11T00:17:06;99076.28;;;17.30;73.40
25947;BME280;13745;51.470;9.894;2023-05-11T00:19:51;99077.13;;;17.31;73.27
25947;BME280;13745;51.470;9.894;2023-05-11T00:22:36;99081.44;;;17.32;73.46
25947;BME280;13745;51.470;9.894;2023-05-11T00:25:21;99079.69;;;17.32;73.30
25947;BME280;13745;51.470;9.894;2023-05-11T00:28:06;99075.28;;;17.33;73.36
25947;BME280;13745;51.470;9.894;2023-05-11T00:30:54;99077.97;;;17.31;73.49
25947;BME280;13745;51.470;9.894;2023-05-11T00:33:41;99083.22;;;17.31;73.26
25947;BME280;13745;51.470;9.894;2023-05-11T00:36:26;99081.38;;;17.33;73.40
25947;BME280;13745;51.470;9.894;2023-05-11T00:39:11;99071.75;;;17.34;73.20
25947;BME280;13745;51.470;9.894;2023-05-11T00:41:57;99073.44;;;17.35;73.46
25947;BME280;13745;51.470;9.894;2023-05-11T00:44:42;99075.13;;;17.36;73.32
25947;BME280;13745;51.470;9.894;2023-05-11T00:47:27;99074.22;;;17.37;73.45
25947;BME280;13745;51.470;9.894;2023-05-11T00:50:14;99066.44;;;17.35;73.19
25947;BME280;13745;51.470;9.894;2023-05-11T00:52:59;99076.06;;;17.35;73.25
25947;BME280;13745;51.470;9.894;2023-05-11T00:55:44;99066.56;;;17.32;73.24
25947;BME280;13745;51.470;9.894;2023-05-11T00:58:30;99070.13;;;17.31;73.35
25947;BME280;13745;51.470;9.894;2023-05-11T01:01:15;99066.69;;;17.29;73.47
25947;BME280;13745;51.470;9.894;2023-05-11T01:04:02;99072.00;;;17.28;73.27
25947;BME280;13745;51.470;9.894;2023-05-11T01:06:51;99071.25;;;17.26;73.33
25947;BME280;13745;51.470;9.894;2023-05-11T01:09:47;99069.53;;;17.25;73.65
25947;BME280;13745;51.470;9.894;2023-05-11T01:12:43;99069.53;;;17.25;73.78
25947;BME280;13745;51.470;9.894;2023-05-11T01:15:32;99068.63;;;17.26;73.86
25947;BME280;13745;51.470;9.894;2023-05-11T01:18:27;99070.25;;;17.28;73.72
25947;BME280;13745;51.470;9.894;2023-05-11T01:21:19;99069.41;;;17.28;73.71
25947;BME280;13745;51.470;9.894;2023-05-11T01:24:22;99060.69;;;17.27;73.85
25947;BME280;13745;51.470;9.894;2023-05-11T01:27:30;99062.34;;;17.30;73.76
25947;BME280;13745;51.470;9.894;2023-05-11T01:30:31;99062.38;;;17.28;73.73
25947;BME280;13745;51.470;9.894;2023-05-11T01:33:21;99060.69;;;17.27;73.50
25947;BME280;13745;51.470;9.894;2023-05-11T01:36:10;99061.47;;;17.29;73.86
25947;BME280;13745;51.470;9.894;2023-05-11T01:38:59;99071.03;;;17.30;73.68
25947;BME280;13745;51.470;9.894;2023-05-11T01:41:50;99057.94;;;17.30;73.72
25947;BME280;13745;51.470;9.894;2023-05-11T01:44:39;99067.56;;;17.30;73.48
25947;BME280;13745;51.470;9.894;2023-05-11T01:47:29;99066.66;;;17.31;73.59
25947;BME280;13745;51.470;9.894;2023-05-11T01:50:16;99069.31;;;17.29;73.54
25947;BME280;13745;51.470;9.894;2023-05-11T01:53:03;99071.16;;;17.27;73.35
25947;BME280;13745;51.470;9.894;2023-05-11T01:55:50;99077.31;;;17.26;73.44
25947;BME280;13745;51.470;9.894;2023-05-11T01:58:37;99069.53;;;17.25;73.64
25947;BME280;13745;51.470;9.894;2023-05-11T02:01:25;99073.94;;;17.24;73.42
25947;BME280;13745;51.470;9.894;2023-05-11T02:04:15;99073.94;;;17.24;73.55
25947;BME280;13745;51.470;9.894;2023-05-11T02:07:03;99070.53;;;17.22;73.49
25947;BME280;13745;51.470;9.894;2023-05-11T02:09:50;99073.22;;;17.21;73.55
25947;BME280;13745;51.470;9.894;2023-05-11T02:12:35;99071.59;;;17.18;73.69
25947;BME280;13745;51.470;9.894;2023-05-11T02:15:24;99075.97;;;17.18;73.51
25947;BME280;13745;51.470;9.894;2023-05-11T02:18:11;99075.97;;;17.18;73.58
25947;BME280;13745;51.470;9.894;2023-05-11T02:21:00;99076.91;;;17.17;73.36
25947;BME280;13745;51.470;9.894;2023-05-11T02:23:46;99065.56;;;17.16;73.58
25947;BME280;13745;51.470;9.894;2023-05-11T02:26:34;99068.28;;;17.15;73.55
25947;BME280;13745;51.470;9.894;2023-05-11T02:29:19;99066.56;;;17.13;73.62
25947;BME280;13745;51.470;9.894;2023-05-11T02:32:08;99072.69;;;17.12;73.58
25947;BME280;13745;51.470;9.894;2023-05-11T02:34:59;99072.78;;;17.11;73.58
25947;BME280;13745;51.470;9.894;2023-05-11T02:37:47;99078.00;;;17.11;73.61
25947;BME280;13745;51.470;9.894;2023-05-11T02:40:42;99075.41;;;17.11;73.72
25947;BME280;13745;51.470;9.894;2023-05-11T02:43:32;99082.41;;;17.10;73.72
25947;BME280;13745;51.470;9.894;2023-05-11T02:46:27;99072.06;;;17.07;73.71
25947;BME280;13745;51.470;9.894;2023-05-11T02:49:14;99071.16;;;17.08;73.72
25947;BME280;13745;51.470;9.894;2023-05-11T02:52:02;99072.94;;;17.08;73.71
25947;BME280;13745;51.470;9.894;2023-05-11T02:54:53;99073.84;;;17.07;73.71
25947;BME280;13745;51.470;9.894;2023-05-11T02:57:39;99079.94;;;17.07;73.91
25947;BME280;13745;51.470;9.894;2023-05-11T03:00:26;99070.38;;;17.06;73.89
25947;BME280;13745;51.470;9.894;2023-05-11T03:03:11;99072.19;;;17.04;73.69
25947;BME280;13745;51.470;9.894;2023-05-11T03:05:56;99077.38;;;17.06;73.89
25947;BME280;13745;51.470;9.894;2023-05-11T03:08:41;99075.69;;;17.05;73.86
25947;BME280;13745;51.470;9.894;2023-05-11T03:11:29;99071.41;;;17.02;73.74
25947;BME280;13745;51.470;9.894;2023-05-11T03:14:14;99067.94;;;17.02;73.93
25947;BME280;13745;51.470;9.894;2023-05-11T03:17:03;99069.81;;;17.00;73.77
25947;BME280;13745;51.470;9.894;2023-05-11T03:19:51;99072.56;;;16.97;74.11
25947;BME280;13745;51.470;9.894;2023-05-11T03:22:37;99069.06;;;16.96;74.11
25947;BME280;13745;51.470;9.894;2023-05-11T03:25:23;99063.81;;;16.96;74.19
25947;BME280;13745;51.470;9.894;2023-05-11T03:28:10;99066.41;;;16.98;73.98
25947;BME280;13745;51.470;9.894;2023-05-11T03:30:57;99069.03;;;16.98;74.04
25947;BME280;13745;51.470;9.894;2023-05-11T03:33:43;99064.75;;;16.95;74.12
25947;BME280;13745;51.470;9.894;2023-05-11T03:36:29;99066.44;;;16.96;74.07
25947;BME280;13745;51.470;9.894;2023-05-11T03:39:16;99069.03;;;16.98;74.20
25947;BME280;13745;51.470;9.894;2023-05-11T03:42:02;99062.88;;;16.99;74.22
25947;BME280;13745;51.470;9.894;2023-05-11T03:44:52;99068.88;;;17.01;74.02
25947;BME280;13745;51.470;9.894;2023-05-11T03:47:39;99067.94;;;17.02;74.05
25947;BME280;13745;51.470;9.894;2023-05-11T03:50:27;99062.66;;;17.03;73.85
25947;BME280;13745;51.470;9.894;2023-05-11T03:53:13;99066.19;;;17.02;73.74
25947;BME280;13745;51.470;9.894;2023-05-11T03:56:00;99063.50;;;17.04;74.08
25947;BME280;13745;51.470;9.894;2023-05-11T03:58:47;99065.34;;;17.02;73.89
25947;BME280;13745;51.470;9.894;2023-05-11T04:01:34;99060.94;;;17.02;73.86
25947;BME280;13745;51.470;9.894;2023-05-11T04:04:20;99060.94;;;17.02;73.91
25947;BME280;13745;51.470;9.894;2023-05-11T04:07:11;99067.03;;;17.03;74.00
25947;BME280;13745;51.470;9.894;2023-05-11T04:09:56;99060.88;;;17.04;74.17
25947;BME280;13745;51.470;9.894;2023-05-11T04:12:41;99060.81;;;17.05;74.02
25947;BME280;13745;51.470;9.894;2023-05-11T04:15:26;99062.53;;;17.06;74.07
25947;BME280;13745;51.470;9.894;2023-05-11T04:18:12;99059.81;;;17.08;73.94
25947;BME280;13745;51.470;9.894;2023-05-11T04:20:58;99062.38;;;17.09;73.97
25947;BME280;13745;51.470;9.894;2023-05-11T04:23:43;99065.84;;;17.10;73.81
25947;BME280;13745;51.470;9.894;2023-05-11T04:26:28;99065.78;;;17.11;73.79
25947;BME280;13745;51.470;9.894;2023-05-11T04:29:14;99069.22;;;17.12;73.89
25947;BME280;13745;51.470;9.894;2023-05-11T04:31:59;99061.34;;;17.13;73.76
25947;BME280;13745;51.470;9.894;2023-05-11T04:34:47;99066.50;;;17.15;73.99
25947;BME280;13745;51.470;9.894;2023-05-11T04:37:35;99074.22;;;17.18;74.01
25947;BME280;13745;51.470;9.894;2023-05-11T04:40:23;99073.28;;;17.19;73.84
25947;BME280;13745;51.470;9.894;2023-05-11T04:43:10;99076.75;;;17.20;73.85
25947;BME280;13745;51.470;9.894;2023-05-11T04:45:55;99076.63;;;17.23;73.61
25947;BME280;13745;51.470;9.894;2023-05-11T04:48:43;99076.56;;;17.24;74.03
25947;BME280;13745;51.470;9.894;2023-05-11T04:51:30;99076.41;;;17.27;74.00
25947;BME280;13745;51.470;9.894;2023-05-11T04:54:16;99075.34;;;17.31;73.86
25947;BME280;13745;51.470;9.894;2023-05-11T04:57:02;99073.44;;;17.35;74.01
25947;BME280;13745;51.470;9.894;2023-05-11T04:59:48;99072.44;;;17.37;74.07
25947;BME280;13745;51.470;9.894;2023-05-11T05:02:33;99084.56;;;17.40;73.96
25947;BME280;13745;51.470;9.894;2023-05-11T05:05:18;99078.31;;;17.42;73.88
25947;BME280;13745;51.470;9.894;2023-05-11T05:08:05;99086.03;;;17.46;73.95
25947;BME280;13745;51.470;9.894;2023-05-11T05:10:51;99087.69;;;17.48;73.78
25947;BME280;13745;51.470;9.894;2023-05-11T05:13:36;99087.53;;;17.51;74.00
25947;BME280;13745;51.470;9.894;2023-05-11T05:16:21;99085.69;;;17.53;73.73
25947;BME280;13745;51.470;9.894;2023-05-11T05:19:06;99088.25;;;17.55;73.90
25947;BME280;13745;51.470;9.894;2023-05-11T05:21:52;99086.34;;;17.58;73.69
25947;BME280;13745;51.470;9.894;2023-05-11T05:24:39;99085.41;;;17.59;73.75
25947;BME280;13745;51.470;9.894;2023-05-11T05:27:24;99092.22;;;17.63;73.79
25947;BME280;13745;51.470;9.894;2023-05-11T05:30:11;99086.81;;;17.66;73.53
25947;BME280;13745;51.470;9.894;2023-05-11T05:32:56;99092.78;;;17.70;73.57
25947;BME280;13745;51.470;9.894;2023-05-11T05:35:42;99097.91;;;17.73;73.64
25947;BME280;13745;51.470;9.894;2023-05-11T05:38:30;99097.69;;;17.78;73.58
25947;BME280;13745;51.470;9.894;2023-05-11T05:41:17;99092.38;;;17.79;73.63
25947;BME280;13745;51.470;9.894;2023-05-11T05:44:02;99096.63;;;17.82;73.67
25947;BME280;13745;51.470;9.894;2023-05-11T05:46:48;99098.25;;;17.84;73.73
25947;BME280;13745;51.470;9.894;2023-05-11T05:49:33;99099.84;;;17.87;73.60
25947;BME280;13745;51.470;9.894;2023-05-11T05:52:20;99104.13;;;17.89;73.62
25947;BME280;13745;51.470;9.894;2023-05-11T05:55:07;99104.91;;;17.91;73.80
25947;BME280;13745;51.470;9.894;2023-05-11T05:57:54;99108.28;;;17.93;74.12
25947;BME280;13745;51.470;9.894;2023-05-11T06:00:39;99113.31;;;17.98;73.66
25947;BME280;13745;51.470;9.894;2023-05-11T06:03:27;99111.56;;;17.99;73.84
25947;BME280;13745;51.470;9.894;2023-05-11T06:06:11;99113.09;;;18.03;73.89
25947;BME280;13745;51.470;9.894;2023-05-11T06:08:57;99119.91;;;18.07;73.82
25947;BME280;13745;51.470;9.894;2023-05-11T06:11:41;99117.97;;;18.10;73.73
25947;BME280;13745;51.470;9.894;2023-05-11T06:14:29;99117.00;;;18.13;73.89
25947;BME280;13745;51.470;9.894;2023-05-11T06:17:14;99119.38;;;18.17;73.69
25947;BME280;13745;51.470;9.894;2023-05-11T06:20:02;99117.47;;;18.21;73.61
25947;BME280;13745;51.470;9.894;2023-05-11T06:22:49;99114.69;;;18.24;73.58
25947;BME280;13745;51.470;9.894;2023-05-11T06:25:35;99115.44;;;18.26;73.48
25947;BME280;13745;51.470;9.894;2023-05-11T06:28:20;99117.78;;;18.32;73.53
25947;BME280;13745;51.470;9.894;2023-05-11T06:31:09;99111.59;;;18.33;73.52
25947;BME280;13745;51.470;9.894;2023-05-11T06:33:56;99112.28;;;18.37;73.40
25947;BME280;13745;51.470;9.894;2023-05-11T06:36:44;99109.44;;;18.41;73.42
25947;BME280;13745;51.470;9.894;2023-05-11T06:39:29;99104.84;;;18.46;73.10
25947;BME280;13745;51.470;9.894;2023-05-11T06:42:14;99114.31;;;18.49;73.17
25947;BME280;13745;51.470;9.894;2023-05-11T06:45:00;99108.06;;;18.51;73.06
25947;BME280;13745;51.470;9.894;2023-05-11T06:47:47;99106.16;;;18.55;73.15
25947;BME280;13745;51.470;9.894;2023-05-11T06:50:32;99114.72;;;18.59;72.87
25947;BME280;13745;51.470;9.894;2023-05-11T06:53:18;99113.66;;;18.63;72.91
25947;BME280;13745;51.470;9.894;2023-05-11T06:56:04;99104.69;;;18.67;73.16
25947;BME280;13745;51.470;9.894;2023-05-11T06:58:49;99115.84;;;18.72;73.00
25947;BME280;13745;51.470;9.894;2023-05-11T07:01:34;99117.34;;;18.76;72.81
25947;BME280;13745;51.470;9.894;2023-05-11T07:04:20;99125.25;;;18.76;73.00
25947;BME280;13745;51.470;9.894;2023-05-11T07:07:05;99119.84;;;18.79;72.96
25947;BME280;13745;51.470;9.894;2023-05-11T07:09:51;99112.66;;;18.83;73.10
25947;BME280;13745;51.470;9.894;2023-05-11T07:12:36;99115.91;;;18.88;73.04
25947;BME280;13745;51.470;9.894;2023-05-11T07:15:21;99114.72;;;18.93;73.10
25947;BME280;13745;51.470;9.894;2023-05-11T07:18:07;99116.94;;;19.01;73.20
25947;BME280;13745;51.470;9.894;2023-05-11T07:20:53;99113.84;;;19.10;73.36
25947;BME280;13745;51.470;9.894;2023-05-11T07:23:39;99113.34;;;19.19;73.16
25947;BME280;13745;51.470;9.894;2023-05-11T07:26:24;99113.78;;;19.27;73.35
25947;BME280;13745;51.470;9.894;2023-05-11T07:29:09;99109.16;;;19.32;73.21
25947;BME280;13745;51.470;9.894;2023-05-11T07:31:54;99115.78;;;19.40;72.98
25947;BME280;13745;51.470;9.894;2023-05-11T07:34:39;99115.47;;;19.46;73.04
25947;BME280;13745;51.470;9.894;2023-05-11T07:37:26;99122.94;;;19.53;72.83
25947;BME280;13745;51.470;9.894;2023-05-11T07:40:11;99118.38;;;19.57;72.91
25947;BME280;13745;51.470;9.894;2023-05-11T07:42:56;99120.06;;;19.58;72.75
25947;BME280;13745;51.470;9.894;2023-05-11T07:45:41;99125.25;;;19.59;72.56
25947;BME280;13745;51.470;9.894;2023-05-11T07:48:26;99111.25;;;19.59;72.46
25947;BME280;13745;51.470;9.894;2023-05-11T07:51:11;99111.25;;;19.59;72.60
25947;BME280;13745;51.470;9.894;2023-05-11T07:53:57;99114.91;;;19.56;72.69
25947;BME280;13745;51.470;9.894;2023-05-11T07:56:43;99107.00;;;19.56;72.37
25947;BME280;13745;51.470;9.894;2023-05-11T07:59:28;99110.50;;;19.57;72.60
25947;BME280;13745;51.470;9.894;2023-05-11T08:02:13;99109.47;;;19.59;72.69
25947;BME280;13745;51.470;9.894;2023-05-11T08:04:58;99110.16;;;19.63;72.82
25947;BME280;13745;51.470;9.894;2023-05-11T08:07:43;99118.63;;;19.68;72.54
25947;BME280;13745;51.470;9.894;2023-05-11T08:10:30;99111.34;;;19.73;72.65
25947;BME280;13745;51.470;9.894;2023-05-11T08:13:15;99112.81;;;19.79;72.09
25947;BME280;13745;51.470;9.894;2023-05-11T08:16:00;99105.34;;;19.87;72.33
25947;BME280;13745;51.470;9.894;2023-05-11T08:18:45;99111.06;;;19.93;71.90
25947;BME280;13745;51.470;9.894;2023-05-11T08:21:31;99119.38;;;20.02;71.84
25947;BME280;13745;51.470;9.894;2023-05-11T08:24:16;99119.91;;;20.08;71.68
25947;BME280;13745;51.470;9.894;2023-05-11T08:27:03;99111.66;;;20.14;71.78
25947;BME280;13745;51.470;9.894;2023-05-11T08:29:49;99109.44;;;20.23;71.80
25947;BME280;13745;51.470;9.894;2023-05-11T08:32:35;99118.59;;;20.31;71.18
25947;BME280;13745;51.470;9.894;2023-05-11T08:35:20;99117.22;;;20.40;71.43
25947;BME280;13745;51.470;9.894;2023-05-11T08:38:07;99122.16;;;20.46;71.13
25947;BME280;13745;51.470;9.894;2023-05-11T08:40:52;99120.78;;;20.55;71.27
25947;BME280;13745;51.470;9.894;2023-05-11T08:43:39;99118.53;;;20.63;70.90
25947;BME280;13745;51.470;9.894;2023-05-11T08:46:28;99118.09;;;20.70;70.59
25947;BME280;13745;51.470;9.894;2023-05-11T08:49:14;99115.75;;;20.80;70.60
25947;BME280;13745;51.470;9.894;2023-05-11T08:52:03;99109.19;;;20.87;70.44
25947;BME280;13745;51.470;9.894;2023-05-11T08:54:48;99118.88;;;21.01;70.54
25947;BME280;13745;51.470;9.894;2023-05-11T08:57:33;99107.81;;;21.10;69.97
25947;BME280;13745;51.470;9.894;2023-05-11T09:00:21;99116.94;;;21.19;70.00
25947;BME280;13745;51.470;9.894;2023-05-11T09:03:07;99122.63;;;21.27;69.95
25947;BME280;13745;51.470;9.894;2023-05-11T09:05:53;99107.25;;;21.34;69.74
25947;BME280;13745;51.470;9.894;2023-05-11T09:08:38;99120.63;;;21.45;69.71
25947;BME280;13745;51.470;9.894;2023-05-11T09:11:24;99113.94;;;21.53;69.72
25947;BME280;13745;51.470;9.894;2023-05-11T09:14:09;99107.13;;;21.64;69.65
25947;BME280;13745;51.470;9.894;2023-05-11T09:16:56;99104.66;;;21.75;69.52
25947;BME280;13745;51.470;9.894;2023-05-11T09:19:58;99101.16;;;21.88;69.25
25947;BME280;13745;51.470;9.894;2023-05-11T09:22:45;99105.84;;;21.98;69.10
25947;BME280;13745;51.470;9.894;2023-05-11T09:25:31;99102.50;;;22.08;68.87
25947;BME280;13745;51.470;9.894;2023-05-11T09:28:20;99093.16;;;22.17;68.65
25947;BME280;13745;51.470;9.894;2023-05-11T09:31:05;99102.91;;;22.29;68.57
25947;BME280;13745;51.470;9.894;2023-05-11T09:34:07;99091.63;;;22.40;68.31
25947;BME280;13745;51.470;9.894;2023-05-11T09:36:54;99098.94;;;22.49;68.25
25947;BME280;13745;51.470;9.894;2023-05-11T09:39:39;99103.72;;;22.57;67.74
25947;BME280;13745;51.470;9.894;2023-05-11T09:42:24;99095.28;;;22.64;68.11
25947;BME280;13745;51.470;9.894;2023-05-11T09:45:09;99102.47;;;22.75;67.92
25947;BME280;13745;51.470;9.894;2023-05-11T09:47:55;99103.63;;;22.84;67.19
25947;BME280;13745;51.470;9.894;2023-05-11T09:50:42;99099.59;;;22.92;67.10
25947;BME280;13745;51.470;9.894;2023-05-11T09:53:38;99096.31;;;23.02;66.87
25947;BME280;13745;51.470;9.894;2023-05-11T09:56:43;99097.25;;;23.13;66.86
25947;BME280;13745;51.470;9.894;2023-05-11T09:59:35;99100.94;;;23.36;66.76
25947;BME280;13745;51.470;9.894;2023-05-11T10:02:22;99096.47;;;23.24;66.45
25947;BME280;13745;51.470;9.894;2023-05-11T10:05:10;99090.88;;;23.29;66.92
25947;BME280;13745;51.470;9.894;2023-05-11T10:07:58;99095.84;;;23.33;66.34
25947;BME280;13745;51.470;9.894;2023-05-11T10:10:44;99093.19;;;23.33;66.51
25947;BME280;13745;51.470;9.894;2023-05-11T10:13:31;99085.16;;;23.35;65.83
25947;BME280;13745;51.470;9.894;2023-05-11T10:16:17;99087.34;;;23.41;66.06
25947;BME280;13745;51.470;9.894;2023-05-11T10:19:03;99083.00;;;23.52;66.15
25947;BME280;13745;51.470;9.894;2023-05-11T10:21:50;99074.97;;;23.67;65.54
25947;BME280;13745;51.470;9.894;2023-05-11T10:24:36;99079.03;;;23.84;65.36
25947;BME280;13745;51.470;9.894;2023-05-11T10:27:23;99076.31;;;23.96;64.67
25947;BME280;13745;51.470;9.894;2023-05-11T10:30:09;99076.31;;;23.96;64.83
25947;BME280;13745;51.470;9.894;2023-05-11T10:32:55;99081.63;;;23.96;64.71
25947;BME280;13745;51.470;9.894;2023-05-11T10:35:41;99072.09;;;23.94;64.73
25947;BME280;13745;51.470;9.894;2023-05-11T10:38:27;99065.97;;;23.93;64.69
25947;BME280;13745;51.470;9.894;2023-05-11T10:41:29;99070.50;;;23.91;64.02
25947;BME280;13745;51.470;9.894;2023-05-11T10:48:13;99065.44;;;23.88;63.89
25947;BME280;13745;51.470;9.894;2023-05-11T10:54:43;99068.88;;;23.77;64.14
25947;BME280;13745;51.470;9.894;2023-05-11T10:57:38;99066.28;;;23.65;63.65
25947;BME280;13745;51.470;9.894;2023-05-11T11:04:09;99067.38;;;23.37;63.60
25947;BME280;13745;51.470;9.894;2023-05-11T11:07:03;99067.72;;;23.19;64.12
25947;BME280;13745;51.470;9.894;2023-05-11T11:09:52;99070.25;;;23.08;63.89
25947;BME280;13745;51.470;9.894;2023-05-11T11:12:39;99072.94;;;22.95;64.34
25947;BME280;13745;51.470;9.894;2023-05-11T11:15:24;99064.94;;;22.83;64.84
25947;BME280;13745;51.470;9.894;2023-05-11T11:18:30;99071.31;;;22.67;64.77
25947;BME280;13745;51.470;9.894;2023-05-11T11:21:38;99074.22;;;22.50;65.01
25947;BME280;13745;51.470;9.894;2023-05-11T11:24:41;99073.47;;;22.35;64.80
25947;BME280;13745;51.470;9.894;2023-05-11T11:27:54;99070.69;;;22.24;65.53
25947;BME280;13745;51.470;9.894;2023-05-11T11:30:39;99068.13;;;22.10;65.11
25947;BME280;13745;51.470;9.894;2023-05-11T11:33:32;99067.91;;;21.99;65.52
25947;BME280;13745;51.470;9.894;2023-05-11T11:39:51;99064.78;;;21.79;66.04
25947;BME280;13745;51.470;9.894;2023-05-11T11:42:46;99078.47;;;21.72;66.51
25947;BME280;13745;51.470;9.894;2023-05-11T11:45:31;99073.59;;;21.66;66.53
25947;BME280;13745;51.470;9.894;2023-05-11T11:48:20;99070.09;;;21.65;67.46
25947;BME280;13745;51.470;9.894;2023-05-11T11:51:08;99074.25;;;21.69;67.02
25947;BME280;13745;51.470;9.894;2023-05-11T11:53:57;99071.19;;;21.75;67.61
25947;BME280;13745;51.470;9.894;2023-05-11T11:56:43;99083.06;;;21.82;67.07
25947;BME280;13745;51.470;9.894;2023-05-11T11:59:44;99066.72;;;21.90;67.05
25947;BME280;13745;51.470;9.894;2023-05-11T12:02:31;99074.03;;;21.99;66.88
25947;BME280;13745;51.470;9.894;2023-05-11T12:05:17;99068.75;;;22.13;66.94
25947;BME280;13745;51.470;9.894;2023-05-11T12:08:05;99065.09;;;22.29;66.20
25947;BME280;13745;51.470;9.894;2023-05-11T12:10:53;99070.31;;;22.43;66.93
25947;BME280;13745;51.470;9.894;2023-05-11T12:13:41;99064.81;;;22.59;66.40
25947;BME280;13745;51.470;9.894;2023-05-11T12:16:28;99073.84;;;22.82;66.18
25947;BME280;13745;51.470;9.894;2023-05-11T12:19:22;99069.75;;;23.03;65.84
25947;BME280;13745;51.470;9.894;2023-05-11T12:22:08;99064.34;;;23.17;65.52
25947;BME280;13745;51.470;9.894;2023-05-11T12:24:54;99063.78;;;23.25;64.70
25947;BME280;13745;51.470;9.894;2023-05-11T12:27:47;99064.44;;;23.29;64.56
25947;BME280;13745;51.470;9.894;2023-05-11T12:30:33;99069.50;;;23.32;64.16
25947;BME280;13745;51.470;9.894;2023-05-11T12:33:20;99062.75;;;23.27;64.73
25947;BME280;13745;51.470;9.894;2023-05-11T12:36:06;99063.47;;;23.17;64.00
25947;BME280;13745;51.470;9.894;2023-05-11T12:38:52;99065.94;;;23.07;64.51
25947;BME280;13745;51.470;9.894;2023-05-11T12:41:42;99061.63;;;22.93;64.77
25947;BME280;13745;51.470;9.894;2023-05-11T12:44:27;99071.88;;;22.85;64.80
25947;BME280;13745;51.470;9.894;2023-05-11T12:47:13;99063.59;;;22.77;64.95
25947;BME280;13745;51.470;9.894;2023-05-11T12:50:00;99065.47;;;22.75;65.66
25947;BME280;13745;51.470;9.894;2023-05-11T12:52:46;99063.47;;;22.79;65.37
25947;BME280;13745;51.470;9.894;2023-05-11T12:55:31;99065.06;;;22.81;65.47
25947;BME280;13745;51.470;9.894;2023-05-11T12:58:16;99065.06;;;22.81;65.62
25947;BME280;13745;51.470;9.894;2023-05-11T13:01:02;99062.41;;;22.81;65.35
25947;BME280;13745;51.470;9.894;2023-05-11T13:03:48;99067.50;;;22.84;65.07
25947;BME280;13745;51.470;9.894;2023-05-11T13:06:35;99065.75;;;22.85;65.13
25947;BME280;13745;51.470;9.894;2023-05-11T13:09:21;99061.19;;;22.87;65.35
25947;BME280;13745;51.470;9.894;2023-05-11T13:12:12;99059.56;;;22.84;65.31
25947;BME280;13745;51.470;9.894;2023-05-11T13:15:06;99059.66;;;22.83;65.49
25947;BME280;13745;51.470;9.894;2023-05-11T13:17:56;99058.50;;;22.74;65.21
25947;BME280;13745;51.470;9.894;2023-05-11T13:20:41;99050.25;;;22.66;65.16
25947;BME280;13745;51.470;9.894;2023-05-11T13:23:29;99060.94;;;22.52;64.75
25947;BME280;13745;51.470;9.894;2023-05-11T13:26:21;99053.81;;;22.39;65.17
25947;BME280;13745;51.470;9.894;2023-05-11T13:29:06;99052.75;;;22.29;65.01
25947;BME280;13745;51.470;9.894;2023-05-11T13:31:52;99045.72;;;22.15;65.41
25947;BME280;13745;51.470;9.894;2023-05-11T13:34:37;99050.09;;;22.02;65.30
25947;BME280;13745;51.470;9.894;2023-05-11T13:37:22;99054.28;;;21.92;65.91
25947;BME280;13745;51.470;9.894;2023-05-11T13:40:10;99049.69;;;21.81;66.43
25947;BME280;13745;51.470;9.894;2023-05-11T13:42:56;99045.66;;;21.76;66.22
25947;BME280;13745;51.470;9.894;2023-05-11T13:45:41;99048.59;;;21.71;66.16
25947;BME280;13745;51.470;9.894;2023-05-11T13:48:26;99049.72;;;21.67;66.20
25947;BME280;13745;51.470;9.894;2023-05-11T13:51:11;99047.41;;;21.63;66.59
25947;BME280;13745;51.470;9.894;2023-05-11T13:53:56;99048.25;;;21.63;67.00
25947;BME280;13745;51.470;9.894;2023-05-11T13:56:43;99038.53;;;21.64;66.35
25947;BME280;13745;51.470;9.894;2023-05-11T13:59:28;99043.81;;;21.64;66.61
25947;BME280;13745;51.470;9.894;2023-05-11T14:02:13;99042.88;;;21.65;66.38
25947;BME280;13745;51.470;9.894;2023-05-11T14:04:58;99033.16;;;21.65;66.24
25947;BME280;13745;51.470;9.894;2023-05-11T14:07:43;99035.69;;;21.67;66.55
25947;BME280;13745;51.470;9.894;2023-05-11T14:10:28;99036.66;;;21.66;66.80
25947;BME280;13745;51.470;9.894;2023-05-11T14:13:15;99034.00;;;21.66;66.86
25947;BME280;13745;51.470;9.894;2023-05-11T14:16:01;99035.78;;;21.65;66.40
25947;BME280;13745;51.470;9.894;2023-05-11T14:18:46;99030.63;;;21.64;66.64
25947;BME280;13745;51.470;9.894;2023-05-11T14:21:33;99030.63;;;21.64;67.05
25947;BME280;13745;51.470;9.894;2023-05-11T14:24:18;99035.16;;;21.62;67.08
25947;BME280;13745;51.470;9.894;2023-05-11T14:27:04;99044.09;;;21.59;67.25
25947;BME280;13745;51.470;9.894;2023-05-11T14:29:51;99034.69;;;21.55;67.18
25947;BME280;13745;51.470;9.894;2023-05-11T14:32:36;99030.66;;;21.49;67.21
25947;BME280;13745;51.470;9.894;2023-05-11T14:35:21;99021.38;;;21.44;67.10
25947;BME280;13745;51.470;9.894;2023-05-11T14:38:06;99032.19;;;21.39;67.22
25947;BME280;13745;51.470;9.894;2023-05-11T14:40:51;99027.19;;;21.35;67.13
25947;BME280;13745;51.470;9.894;2023-05-11T14:43:36;99028.34;;;21.30;66.98
25947;BME280;13745;51.470;9.894;2023-05-11T14:46:23;99023.50;;;21.23;67.38
25947;BME280;13745;51.470;9.894;2023-05-11T14:49:08;99014.03;;;21.20;67.82
25947;BME280;13745;51.470;9.894;2023-05-11T14:51:53;99024.75;;;21.17;67.93
25947;BME280;13745;51.470;9.894;2023-05-11T14:54:39;99026.72;;;21.14;68.45
25947;BME280;13745;51.470;9.894;2023-05-11T14:57:25;99025.22;;;21.10;68.52
25947;BME280;13745;51.470;9.894;2023-05-11T15:00:11;99031.84;;;21.02;68.20